QFA422 YMML-YSSY
Flight info
| Callsign | QFA422 |
|---|---|
| Flight time | N/A |
| Altitude | 37000 |
| Route | DOSEL Y59 RIVET |
| Aircraft | A21N/M-SDE3FGHIRWY/LB1 |
Departure
| Time | 2026-05-01 10:53 |
|---|---|
| Airport | Melbourne Airport (YMML) |
Arrival
| Time | N/A |
|---|---|
| Airport | Sydney Kingsford Smith International Airport (YSSY) |
| Time | Latitude | Longitude | Altitude | Speed | Heading |
|---|---|---|---|---|---|
| 2026-05-01 10:27 | -37.66770 | 144.84734 | 441 ft | 0 kts | 251° |
| 2026-05-01 10:36 | -37.66767 | 144.84746 | 442 ft | 2 kts | 250° |
| 2026-05-01 10:36 | -37.66762 | 144.84764 | 442 ft | 2 kts | 252° |
| 2026-05-01 10:36 | -37.66757 | 144.84782 | 442 ft | 2 kts | 261° |
| 2026-05-01 10:37 | -37.66758 | 144.84801 | 442 ft | 2 kts | 284° |
| 2026-05-01 10:37 | -37.66774 | 144.84833 | 442 ft | 2 kts | 324° |
| 2026-05-01 10:37 | -37.66787 | 144.84842 | 442 ft | 2 kts | 345° |
| 2026-05-01 10:38 | -37.66795 | 144.84843 | 442 ft | 1 kts | 356° |
| 2026-05-01 10:38 | -37.66799 | 144.84843 | 442 ft | 0 kts | 353° |
| 2026-05-01 10:40 | -37.66781 | 144.84840 | 442 ft | 8 kts | 349° |
| 2026-05-01 10:40 | -37.66735 | 144.84824 | 442 ft | 0 kts | 343° |
| 2026-05-01 10:40 | -37.66734 | 144.84822 | 442 ft | 0 kts | 343° |
| 2026-05-01 10:41 | -37.66678 | 144.84805 | 442 ft | 13 kts | 347° |
| 2026-05-01 10:41 | -37.66640 | 144.84715 | 442 ft | 13 kts | 264° |
| 2026-05-01 10:41 | -37.66674 | 144.84439 | 442 ft | 16 kts | 261° |
| 2026-05-01 10:42 | -37.66691 | 144.84294 | 442 ft | 16 kts | 262° |
| 2026-05-01 10:42 | -37.66754 | 144.84193 | 442 ft | 16 kts | 183° |
| 2026-05-01 10:42 | -37.66871 | 144.84209 | 442 ft | 17 kts | 171° |
| 2026-05-01 10:42 | -37.66993 | 144.84233 | 442 ft | 17 kts | 171° |
| 2026-05-01 10:43 | -37.67118 | 144.84256 | 442 ft | 19 kts | 172° |
| 2026-05-01 10:43 | -37.67250 | 144.84282 | 442 ft | 19 kts | 171° |
| 2026-05-01 10:43 | -37.67381 | 144.84308 | 442 ft | 19 kts | 170° |
| 2026-05-01 10:43 | -37.67517 | 144.84331 | 442 ft | 22 kts | 172° |
| 2026-05-01 10:44 | -37.67690 | 144.84363 | 442 ft | 27 kts | 171° |
| 2026-05-01 10:44 | -37.67879 | 144.84398 | 442 ft | 28 kts | 171° |
| 2026-05-01 10:44 | -37.68076 | 144.84435 | 442 ft | 27 kts | 171° |
| 2026-05-01 10:44 | -37.68263 | 144.84471 | 442 ft | 26 kts | 171° |
| 2026-05-01 10:45 | -37.68425 | 144.84407 | 442 ft | 24 kts | 213° |
| 2026-05-01 10:45 | -37.68549 | 144.84271 | 442 ft | 15 kts | 254° |
| 2026-05-01 10:45 | -37.68552 | 144.84253 | 442 ft | 0 kts | 260° |
| 2026-05-01 10:51 | -37.68552 | 144.84251 | 442 ft | 0 kts | 260° |
| 2026-05-01 10:52 | -37.68541 | 144.84129 | 442 ft | 20 kts | 306° |
| 2026-05-01 10:52 | -37.68481 | 144.84084 | 442 ft | 0 kts | 351° |
| 2026-05-01 10:52 | -37.68301 | 144.84050 | 442 ft | 63 kts | 351° |
| 2026-05-01 10:53 | -37.67628 | 144.83920 | 442 ft | 128 kts | 351° |
| 2026-05-01 10:53 | -37.66560 | 144.83716 | 504 ft | 173 kts | 352° |
| 2026-05-01 10:53 | -37.65390 | 144.83470 | 1156 ft | 172 kts | 352° |
| 2026-05-01 10:53 | -37.64240 | 144.83232 | 1928 ft | 169 kts | 352° |
| 2026-05-01 10:54 | -37.63067 | 144.82996 | 2504 ft | 174 kts | 352° |
| 2026-05-01 10:54 | -37.61811 | 144.82753 | 2842 ft | 189 kts | 353° |
| 2026-05-01 10:54 | -37.60468 | 144.82500 | 3179 ft | 205 kts | 354° |
| 2026-05-01 10:54 | -37.59003 | 144.82498 | 3519 ft | 220 kts | 12° |
| 2026-05-01 10:55 | -37.57471 | 144.83200 | 3793 ft | 242 kts | 26° |
| 2026-05-01 10:55 | -37.55928 | 144.84154 | 4233 ft | 256 kts | 27° |
| 2026-05-01 10:55 | -37.54327 | 144.85155 | 4921 ft | 258 kts | 26° |
| 2026-05-01 10:55 | -37.52724 | 144.86142 | 5665 ft | 259 kts | 26° |
| 2026-05-01 10:56 | -37.51093 | 144.87140 | 6349 ft | 262 kts | 25° |
| 2026-05-01 10:56 | -37.49455 | 144.88133 | 7000 ft | 266 kts | 25° |
| 2026-05-01 10:56 | -37.47789 | 144.89145 | 7657 ft | 269 kts | 25° |
| 2026-05-01 10:56 | -37.46104 | 144.90167 | 8310 ft | 273 kts | 25° |
| 2026-05-01 10:57 | -37.44427 | 144.91298 | 8966 ft | 278 kts | 33° |
| 2026-05-01 10:57 | -37.42971 | 144.92920 | 9625 ft | 282 kts | 47° |
| 2026-05-01 10:57 | -37.41777 | 144.94888 | 10259 ft | 286 kts | 52° |
| 2026-05-01 10:57 | -37.40608 | 144.96965 | 10634 ft | 300 kts | 53° |
| 2026-05-01 10:58 | -37.39372 | 144.99181 | 10931 ft | 315 kts | 53° |
| 2026-05-01 10:58 | -37.38089 | 145.01480 | 11212 ft | 330 kts | 53° |
| 2026-05-01 10:58 | -37.36745 | 145.03877 | 11493 ft | 344 kts | 53° |
| 2026-05-01 10:58 | -37.35333 | 145.06384 | 11777 ft | 357 kts | 52° |
| 2026-05-01 10:59 | -37.33881 | 145.08954 | 12235 ft | 364 kts | 52° |
| 2026-05-01 10:59 | -37.32420 | 145.11534 | 12818 ft | 365 kts | 52° |
| 2026-05-01 10:59 | -37.30942 | 145.14137 | 13347 ft | 368 kts | 52° |
| 2026-05-01 10:59 | -37.29452 | 145.16775 | 13860 ft | 372 kts | 52° |
| 2026-05-01 11:00 | -37.27948 | 145.19431 | 14374 ft | 374 kts | 52° |
| 2026-05-01 11:00 | -37.26440 | 145.22090 | 14869 ft | 378 kts | 52° |
| 2026-05-01 11:00 | -37.24914 | 145.24785 | 15374 ft | 381 kts | 52° |
| 2026-05-01 11:00 | -37.23380 | 145.27489 | 15878 ft | 384 kts | 52° |
| 2026-05-01 11:01 | -37.21822 | 145.30228 | 16374 ft | 387 kts | 52° |
| 2026-05-01 11:01 | -37.20247 | 145.32991 | 16864 ft | 390 kts | 52° |
| 2026-05-01 11:01 | -37.18666 | 145.35761 | 17345 ft | 393 kts | 52° |
| 2026-05-01 11:01 | -37.17079 | 145.38541 | 17814 ft | 396 kts | 52° |
| 2026-05-01 11:02 | -37.15471 | 145.41356 | 18268 ft | 399 kts | 52° |
| 2026-05-01 11:02 | -37.13856 | 145.44185 | 18709 ft | 401 kts | 52° |
| 2026-05-01 11:02 | -37.12229 | 145.47026 | 19133 ft | 404 kts | 51° |
| 2026-05-01 11:02 | -37.10587 | 145.49887 | 19563 ft | 407 kts | 51° |
| 2026-05-01 11:03 | -37.08931 | 145.52765 | 19989 ft | 409 kts | 51° |
| 2026-05-01 11:03 | -37.07265 | 145.55655 | 20407 ft | 412 kts | 51° |
| 2026-05-01 11:03 | -37.05586 | 145.58568 | 20819 ft | 415 kts | 51° |
| 2026-05-01 11:03 | -37.03902 | 145.61488 | 21225 ft | 417 kts | 51° |
| 2026-05-01 11:04 | -37.02211 | 145.64421 | 21617 ft | 420 kts | 51° |
| 2026-05-01 11:04 | -37.00503 | 145.67378 | 21994 ft | 422 kts | 51° |
| 2026-05-01 11:04 | -36.98785 | 145.70352 | 22366 ft | 424 kts | 51° |
| 2026-05-01 11:04 | -36.97603 | 145.72400 | 22617 ft | 426 kts | 51° |